K-storm — V2DV8 — position and weather

sailwx.info

Track history (hours):
 
Tides and Currents Weather Stations Pressure Air Temp Water Temp Dewpoint Dewpoint Depression Visibility Wind Speed Wind Dir Waves Ship Positions

K-storm

Last reported at 2014-Oct-24 08:33 UTC. Time now 2014-Oct-26 01:15 UTC.
Position N 25°32' W 080°01'.

Length 139 m; draft 6.3 m.

Type: Ship. MMSI: 305350000.

Date/timePositionNaut miles runAvg speedWind from/ knotsBaromVisibWave heightAir tempDewpointWater temp
2014-Oct-24 08:33N 25°32' W 080°01'1413.8
2014-Oct-24 07:34N 25°45' W 080°02'1413.6
2014-Oct-24 06:33N 25°59' W 080°03'6 6.3
2014-Oct-24 05:33N 26°04' W 080°07'0 0.0
2014-Oct-24 04:27N 26°04' W 080°07'0 0.0
2014-Oct-24 03:33N 26°04' W 080°07'0 0.0
2014-Oct-24 02:21N 26°04' W 080°07'0 0.0
2014-Oct-24 01:29N 26°04' W 080°07'0 0.0
2014-Oct-24 00:26N 26°04' W 080°07'0 0.0
2014-Oct-23 23:31N 26°04' W 080°07'0 0.0
2014-Oct-23 22:28N 26°04' W 080°07'0 0.0
2014-Oct-23 21:31N 26°04' W 080°07'0 0.0
2014-Oct-23 20:30N 26°04' W 080°07'0 0.0
2014-Oct-23 19:24N 26°04' W 080°07'0 0.0
2014-Oct-23 18:26N 26°04' W 080°07'0 0.0
2014-Oct-23 17:31N 26°04' W 080°07'0 0.0
2014-Oct-23 16:28N 26°04' W 080°07'0 0.0
2014-Oct-23 15:33N 26°04' W 080°07'0 0.0
2014-Oct-23 14:30N 26°04' W 080°07'0 0.0
2014-Oct-23 13:33N 26°04' W 080°07'0 0.0
2014-Oct-23 12:32N 26°04' W 080°07'0 0.0
2014-Oct-23 11:33N 26°04' W 080°07'4 4.1
2014-Oct-23 10:33N 26°05' W 080°02'2 2.3
2014-Oct-23 09:33N 26°04' W 080°00'8 8.5
2014-Oct-23 08:33N 25°56' W 079°57'9 9.2
2014-Oct-23 07:33N 25°47' W 079°58'9 9.2
2014-Oct-23 06:33N 25°37' W 079°58'12 9.6
2014-Oct-23 05:20N 25°26' W 079°58'  
2014-Oct-17 16:29N 24°05' W 081°24'1515.4
2014-Oct-17 15:32N 24°14' W 081°12'7815.1
2014-Oct-17 10:22N 25°06' W 080°08'1714.6
2014-Oct-17 09:11N 25°22' W 080°01'914.4
2014-Oct-17 08:33N 25°31' W 080°01'1413.9
2014-Oct-17 07:33N 25°45' W 080°02'1413.7
2014-Oct-17 06:33N 25°59' W 080°02'7 6.8
2014-Oct-17 05:33N 26°04' W 080°07'0 0.0
2014-Oct-17 04:33N 26°04' W 080°07'0 0.0
2014-Oct-17 03:27N 26°04' W 080°07'0 0.0
2014-Oct-17 02:32N 26°04' W 080°07'0 0.0
2014-Oct-17 01:29N 26°04' W 080°07'0 0.0
2014-Oct-17 00:31N 26°04' W 080°07'0 0.0
2014-Oct-16 23:31N 26°04' W 080°07'0 0.0
2014-Oct-16 22:24N 26°04' W 080°07'0 0.0
2014-Oct-16 21:27N 26°04' W 080°07'0 0.0
2014-Oct-16 20:23N 26°04' W 080°07'0 0.0
2014-Oct-16 19:32N 26°04' W 080°07'0 0.0
2014-Oct-16 18:29N 26°04' W 080°07'0 0.0
2014-Oct-16 17:31N 26°04' W 080°07'0 0.0
2014-Oct-16 16:31N 26°04' W 080°07'0 0.0
2014-Oct-16 15:21N 26°04' W 080°07'0 0.0
2014-Oct-16 14:33N 26°04' W 080°07'0 0.0
2014-Oct-16 13:23N 26°04' W 080°07'0 0.0
2014-Oct-16 12:17N 26°04' W 080°07'0 0.0
2014-Oct-16 11:29N 26°04' W 080°07'0 0.0
2014-Oct-16 10:31N 26°04' W 080°07'1 0.5
2014-Oct-16 09:33N 26°04' W 080°07'7 7.4
2014-Oct-16 08:33N 26°03' W 079°59'1312.7
2014-Oct-16 07:33N 25°50' W 079°58'1717.0
2014-Oct-16 06:33N 25°33' W 079°58'  
Track history (hours):
 
Tides and Currents Weather Stations Pressure Air Temp Water Temp Dewpoint Dewpoint Depression Visibility Wind Speed Wind Dir Waves Ship Positions

K-storm

Last reported at 2014-Oct-24 08:33 UTC. Time now 2014-Oct-26 01:15 UTC.
Position N 25°32' W 080°01'.

Length 139 m; draft 6.3 m.

Type: Ship. MMSI: 305350000.

Date/timePositionNaut miles runAvg speedWind from/ knotsBaromVisibWave heightAir tempDewpointWater temp
2014-Oct-24 08:33N 25°32' W 080°01'1413.8
2014-Oct-24 07:34N 25°45' W 080°02'1413.6
2014-Oct-24 06:33N 25°59' W 080°03'6 6.3
2014-Oct-24 05:33N 26°04' W 080°07'0 0.0
2014-Oct-24 04:27N 26°04' W 080°07'0 0.0
2014-Oct-24 03:33N 26°04' W 080°07'0 0.0
2014-Oct-24 02:21N 26°04' W 080°07'0 0.0
2014-Oct-24 01:29N 26°04' W 080°07'0 0.0
2014-Oct-24 00:26N 26°04' W 080°07'0 0.0
2014-Oct-23 23:31N 26°04' W 080°07'0 0.0
2014-Oct-23 22:28N 26°04' W 080°07'0 0.0
2014-Oct-23 21:31N 26°04' W 080°07'0 0.0
2014-Oct-23 20:30N 26°04' W 080°07'0 0.0
2014-Oct-23 19:24N 26°04' W 080°07'0 0.0
2014-Oct-23 18:26N 26°04' W 080°07'0 0.0
2014-Oct-23 17:31N 26°04' W 080°07'0 0.0
2014-Oct-23 16:28N 26°04' W 080°07'0 0.0
2014-Oct-23 15:33N 26°04' W 080°07'0 0.0
2014-Oct-23 14:30N 26°04' W 080°07'0 0.0
2014-Oct-23 13:33N 26°04' W 080°07'0 0.0
2014-Oct-23 12:32N 26°04' W 080°07'0 0.0
2014-Oct-23 11:33N 26°04' W 080°07'4 4.1
2014-Oct-23 10:33N 26°05' W 080°02'2 2.3
2014-Oct-23 09:33N 26°04' W 080°00'8 8.5
2014-Oct-23 08:33N 25°56' W 079°57'9 9.2
2014-Oct-23 07:33N 25°47' W 079°58'9 9.2
2014-Oct-23 06:33N 25°37' W 079°58'12 9.6
2014-Oct-23 05:20N 25°26' W 079°58'  
2014-Oct-17 16:29N 24°05' W 081°24'1515.4
2014-Oct-17 15:32N 24°14' W 081°12'7815.1
2014-Oct-17 10:22N 25°06' W 080°08'1714.6
2014-Oct-17 09:11N 25°22' W 080°01'914.4
2014-Oct-17 08:33N 25°31' W 080°01'1413.9
2014-Oct-17 07:33N 25°45' W 080°02'1413.7
2014-Oct-17 06:33N 25°59' W 080°02'7 6.8
2014-Oct-17 05:33N 26°04' W 080°07'0 0.0
2014-Oct-17 04:33N 26°04' W 080°07'0 0.0
2014-Oct-17 03:27N 26°04' W 080°07'0 0.0
2014-Oct-17 02:32N 26°04' W 080°07'0 0.0
2014-Oct-17 01:29N 26°04' W 080°07'0 0.0
2014-Oct-17 00:31N 26°04' W 080°07'0 0.0
2014-Oct-16 23:31N 26°04' W 080°07'0 0.0
2014-Oct-16 22:24N 26°04' W 080°07'0 0.0
2014-Oct-16 21:27N 26°04' W 080°07'0 0.0
2014-Oct-16 20:23N 26°04' W 080°07'0 0.0
2014-Oct-16 19:32N 26°04' W 080°07'0 0.0
2014-Oct-16 18:29N 26°04' W 080°07'0 0.0
2014-Oct-16 17:31N 26°04' W 080°07'0 0.0
2014-Oct-16 16:31N 26°04' W 080°07'0 0.0
2014-Oct-16 15:21N 26°04' W 080°07'0 0.0
2014-Oct-16 14:33N 26°04' W 080°07'0 0.0
2014-Oct-16 13:23N 26°04' W 080°07'0 0.0
2014-Oct-16 12:17N 26°04' W 080°07'0 0.0
2014-Oct-16 11:29N 26°04' W 080°07'0 0.0
2014-Oct-16 10:31N 26°04' W 080°07'1 0.5
2014-Oct-16 09:33N 26°04' W 080°07'7 7.4
2014-Oct-16 08:33N 26°03' W 079°59'1312.7
2014-Oct-16 07:33N 25°50' W 079°58'1717.0
2014-Oct-16 06:33N 25°33' W 079°58'  

Dump ship's entire track history